Nearby METAR Reports

 

KSJC - San Jose, California, USA
Distance from station: NE 9mi, 14km
Updated: 30/09/2020 07:53
Few Clouds
Few Clouds
 Wind from N
Wind: N 5 mph , 7 km/h
Temperature: 18°C
Dew Point: 15°C
Humidity: 83%
Barometer: 1017.9 hPa
Clouds: Few Clouds
Visibility: 8 miles , 13 km
Cloud details: Few Clouds 305 m
Few Clouds 518 m
2020/09/30 06:53 KSJC 300653Z 36004KT 8SM FEW010 FEW017 18/15 A3006 RMK AO2 SLP178 FU FEW010 LAST T01780150
KNUQ - Moffett Nas/Mtn, California, USA
Distance from station: N 9mi, 14km
Updated: 30/09/2020 08:15
Overcast
Overcast
 Wind from varies
Wind: varies 3 mph , 6 km/h
Temperature: 17°C
Dew Point: 15°C
Humidity: 88%
Barometer: 1018.3 hPa
Clouds: Overcast
Visibility: 10 miles , 16 km
Cloud details: Overcast 213 m
2020/09/30 07:15 KNUQ 300715Z AUTO VRB03KT 10SM OVC007 17/15 A3007 RMK AO2
 
KPAO - Palo Alto, California, USA
Distance from station: NNW 14mi, 23km
Updated: 30/09/2020 02:47
NOT Current

 
Visibility: 2 miles , 3 km
2020/09/30 01:47 KPAO 300147Z 3209KT 10SM SKC 18/16 A3001 RMK LAST
KRHV - San Jose/Reid, California, USA
Distance from station: ENE 12mi, 19km
Updated: 30/09/2020 05:47
NOT Current
Clear
Clear
 Wind from NW
Wind: NW 6 mph , 9 km/h
Temperature: 19°C
Dew Point: 16°C
Humidity: 83%
Barometer: 1017.3 hPa
Clouds: Clear
Visibility: 10 miles , 16 km
2020/09/30 04:47 KRHV 300447Z 31005KT 10SM SKC 19/16 A3004 RMK LAST
 
KOAK - Oakland, California, USA
Distance from station: NNW 31mi, 50km
Updated: 30/09/2020 07:53
Overcast
Overcast
 Wind from NNW
Wind: NNW 5 mph , 7 km/h
Temperature: 17°C
Dew Point: 14°C
Humidity: 83%
Barometer: 1018.3 hPa
Clouds: Overcast
Visibility: 7 miles , 11 km
Cloud details: Overcast 152 m
2020/09/30 06:53 KOAK 300653Z 33004KT 7SM OVC005 17/14 A3007 RMK AO2 SLP180 T01720144
KSQL - San Carlos Airpo, California, USA
Distance from station: NW 21mi, 34km
Updated: 30/09/2020 08:15
Clear
Clear
 Wind from N
Wind: N 3 mph , 6 km/h
Temperature: 15°C
Dew Point: 14°C
Humidity: 94%
Barometer: 1018.3 hPa
Clouds: Clear
Visibility: 10 miles , 16 km
2020/09/30 07:15 KSQL 300715Z AUTO 35003KT 10SM CLR 15/14 A3007 RMK AO2
 
KSFO - San Francisco, California, USA
Distance from station: NW 30mi, 49km
Updated: 30/09/2020 07:56
Mostly cloudy
Mostly cloudy
 Wind from WNW
Wind: WNW 15 mph , 24 km/h
Temperature: 15°C
Dew Point: 14°C
Humidity: 94%
Barometer: 1017.9 hPa
Clouds: Mostly cloudy
Visibility: 8 miles , 13 km
Cloud details: Few Clouds 30 m
Mostly cloudy 91 m
2020/09/30 06:56 KSFO 300656Z 30013KT 8SM FEW001 BKN003 15/14 A3006 RMK AO2 SLP178 T01500139
KE16 - San Martin, California, USA
Distance from station: ESE 27mi, 43km
Updated: 30/09/2020 07:40

 Wind from E
Wind: E 3 mph , 6 km/h
Temperature: 16°C
Dew Point: 13°C
Humidity: 83%
Barometer: 1018.6 hPa
Visibility: 10 miles , 16 km
2020/09/30 06:40 KE16 300640Z AUTO 10003KT 10SM 16/13 A3008 RMK AO2
 
KWVI - Watsonville, California, USA
Distance from station: SSE 27mi, 44km
Updated: 30/09/2020 08:20
Mist, Overcast
Mist, Overcast
 Wind from calm
Wind: Calm
Temperature: 14°C
Dew Point: 14°C
Humidity: 100%
Barometer: 1017.9 hPa
Summary: Mist
Clouds: Overcast
Visibility: 2 miles , 3 km
Cloud details: Overcast 61 m
2020/09/30 07:20 KWVI 300720Z AUTO 00000KT 2SM BR OVC002 14/14 A3006 RMK AO2 VIS 1 1/2V3 T01440144
KHAF - Half Moon Bay, California, USA
Distance from station: WNW 31mi, 50km
Updated: 30/09/2020 08:15
Mist, Overcast
Mist, Overcast
 Wind from N
Wind: N 7 mph , 11 km/h
Temperature: 14°C
Dew Point: 14°C
Humidity: 100%
Barometer: 1018.3 hPa
Summary: Mist
Clouds: Overcast
Visibility: 5 miles , 8 km
Cloud details: Overcast 91 m
2020/09/30 07:15 KHAF 300715Z AUTO 01006KT 5SM BR OVC003 14/14 A3007 RMK AO2
 
KHWD - Hayward, California, USA
Distance from station: N 28mi, 44km
Updated: 30/09/2020 08:24
Partly cloudy
Partly cloudy
 Wind from WNW
Wind: WNW 6 mph , 9 km/h
Temperature: 16°C
Dew Point: 13°C
Humidity: 83%
Barometer: 1018.3 hPa
Clouds: Partly cloudy
Visibility: 8 miles , 13 km
Cloud details: Partly cloudy 183 m
2020/09/30 07:24 KHWD 300724Z 30005KT 8SM SCT006 16/13 A3007 RMK AO2 T01610133
KLVK - Livermore, California, USA
Distance from station: NNE 31mi, 51km
Updated: 30/09/2020 07:53
Smoke, Clear
Smoke, Clear
 Wind from NNW
Wind: NNW 3 mph , 6 km/h
Temperature: 20°C
Dew Point: 12°C
Humidity: 60%
Barometer: 1017.3 hPa
Summary: Smoke
Clouds: Clear
Visibility: 10 miles , 16 km
2020/09/30 06:53 KLVK 300653Z AUTO 34003KT 10SM FU CLR 20/12 A3004 RMK AO2 SLP167 T02000122